createdAt,value
2022-12-24T00:00:13.277Z,28.33
2022-12-24T00:01:13.157Z,28.47
2022-12-24T00:02:13.206Z,28.81
2022-12-24T00:03:13.372Z,32.11
2022-12-24T00:04:13.124Z,33.19
2022-12-24T00:05:13.120Z,29.33
2022-12-24T00:06:13.101Z,26.28
2022-12-24T00:07:13.101Z,27.51
2022-12-24T00:08:13.101Z,26.47
2022-12-24T00:09:13.112Z,28.74
2022-12-24T00:10:13.076Z,26.73
2022-12-24T00:11:13.077Z,27.60
2022-12-24T00:12:13.044Z,27.53
2022-12-24T00:13:13.053Z,27.30
2022-12-24T00:14:13.059Z,27.30
2022-12-24T00:15:13.054Z,27.29
2022-12-24T00:16:13.069Z,27.08
2022-12-24T00:17:13.082Z,25.36
2022-12-24T00:18:13.017Z,27.71
2022-12-24T00:19:13.027Z,30.03
2022-12-24T00:20:12.997Z,26.33
2022-12-24T00:21:12.984Z,27.31
2022-12-24T00:22:12.968Z,28.64
2022-12-24T00:23:12.963Z,27.96
2022-12-24T00:24:12.962Z,28.84
2022-12-24T00:25:12.930Z,25.55
2022-12-24T00:26:12.941Z,25.00
2022-12-24T00:27:12.930Z,29.04
2022-12-24T00:28:12.909Z,25.61
2022-12-24T00:29:12.919Z,26.95
2022-12-24T00:30:12.888Z,25.00
2022-12-24T00:31:12.951Z,26.82
2022-12-24T00:32:12.870Z,29.16
2022-12-24T00:33:12.869Z,27.96
2022-12-24T00:34:12.878Z,25.64
2022-12-24T00:35:12.856Z,25.50
2022-12-24T00:36:12.857Z,29.22
2022-12-24T00:37:12.836Z,25.37
2022-12-24T00:38:12.823Z,25.20
2022-12-24T00:39:12.844Z,25.00
2022-12-24T00:40:12.795Z,26.59
2022-12-24T00:41:12.796Z,25.92
2022-12-24T00:42:12.788Z,28.29
2022-12-24T00:43:12.778Z,27.00
2022-12-24T00:44:12.773Z,25.00
2022-12-24T00:45:12.909Z,28.55
2022-12-24T00:46:12.776Z,26.16
2022-12-24T00:47:12.751Z,25.20
2022-12-24T00:48:12.733Z,27.56
2022-12-24T00:49:12.737Z,30.75
2022-12-24T00:50:12.728Z,29.44
2022-12-24T00:51:12.808Z,29.86
2022-12-24T00:52:12.705Z,31.18
2022-12-24T00:53:12.724Z,31.65
2022-12-24T00:54:12.673Z,30.37
2022-12-24T00:55:12.661Z,27.90
2022-12-24T00:56:12.673Z,28.07
2022-12-24T00:57:12.686Z,27.51
2022-12-24T00:58:12.650Z,28.88
2022-12-24T00:59:12.665Z,25.00
2022-12-24T01:00:12.634Z,27.17
2022-12-24T01:01:12.724Z,25.12
2022-12-24T01:02:12.692Z,29.31
2022-12-24T01:03:12.624Z,28.31
2022-12-24T01:04:12.612Z,28.56
2022-12-24T01:05:12.664Z,29.25
2022-12-24T01:06:12.578Z,26.33
2022-12-24T01:07:12.579Z,27.58
2022-12-24T01:08:12.561Z,26.34
2022-12-24T01:09:12.552Z,27.56
2022-12-24T01:10:12.568Z,30.16
2022-12-24T01:11:12.520Z,27.22
2022-12-24T01:12:12.520Z,27.75
2022-12-24T01:13:12.511Z,28.47
2022-12-24T01:14:12.505Z,25.75
2022-12-24T01:15:12.502Z,26.54
2022-12-24T01:16:12.565Z,26.67
2022-12-24T01:17:12.472Z,26.28
2022-12-24T01:18:12.478Z,26.50
2022-12-24T01:19:12.456Z,27.12
2022-12-24T01:20:12.438Z,27.30
2022-12-24T01:21:12.466Z,25.00
2022-12-24T01:22:12.448Z,30.41
2022-12-24T01:23:12.424Z,27.69
2022-12-24T01:24:12.429Z,27.06
2022-12-24T01:25:12.401Z,29.73
2022-12-24T01:26:12.406Z,30.22
2022-12-24T01:27:12.415Z,29.48
2022-12-24T01:28:12.376Z,27.90
2022-12-24T01:29:12.370Z,27.59
2022-12-24T01:30:12.352Z,27.94
2022-12-24T01:31:12.419Z,28.37
2022-12-24T01:32:12.354Z,28.22
2022-12-24T01:33:12.333Z,28.93
2022-12-24T01:34:12.338Z,29.02
2022-12-24T01:35:12.320Z,29.54
2022-12-24T01:36:12.353Z,31.62
2022-12-24T01:37:12.320Z,27.73
2022-12-24T01:38:12.281Z,29.82
2022-12-24T01:39:12.296Z,26.68
2022-12-24T01:40:12.270Z,28.21
2022-12-24T01:41:12.327Z,25.00
2022-12-24T01:42:12.261Z,27.10
2022-12-24T01:43:12.266Z,28.13
2022-12-24T01:44:12.221Z,26.82
2022-12-24T01:45:12.221Z,27.95
2022-12-24T01:46:12.398Z,27.76
2022-12-24T01:47:12.228Z,27.74
2022-12-24T01:48:12.212Z,28.16
2022-12-24T01:49:12.205Z,27.92
2022-12-24T01:50:12.190Z,25.10
2022-12-24T01:51:12.196Z,26.72
2022-12-24T01:52:12.171Z,27.55
2022-12-24T01:53:12.154Z,28.56
2022-12-24T01:54:12.168Z,26.33
2022-12-24T01:55:12.120Z,29.14
2022-12-24T01:56:12.127Z,27.12
2022-12-24T01:57:12.124Z,28.27
2022-12-24T01:58:12.100Z,26.68
2022-12-24T01:59:12.113Z,26.35
2022-12-24T02:00:12.096Z,28.55
2022-12-24T02:01:12.210Z,25.72
2022-12-24T02:02:12.253Z,25.00
2022-12-24T02:03:12.071Z,25.41
2022-12-24T02:04:12.064Z,26.22
2022-12-24T02:05:12.073Z,27.22
2022-12-24T02:06:12.042Z,27.18
2022-12-24T02:07:12.041Z,26.64
2022-12-24T02:08:12.009Z,30.04
2022-12-24T02:09:12.049Z,26.30
2022-12-24T02:10:11.999Z,27.41
2022-12-24T02:11:11.978Z,28.51
2022-12-24T02:12:11.977Z,27.48
2022-12-24T02:13:11.968Z,32.71
2022-12-24T02:14:11.980Z,27.30
2022-12-24T02:15:11.953Z,29.33
2022-12-24T02:16:11.985Z,25.93
2022-12-24T02:17:11.934Z,29.11
2022-12-24T02:18:11.923Z,26.75
2022-12-24T02:19:11.937Z,25.50
2022-12-24T02:20:11.935Z,27.53
2022-12-24T02:21:11.885Z,28.26
2022-12-24T02:22:11.881Z,26.68
2022-12-24T02:23:11.885Z,27.88
2022-12-24T02:24:11.958Z,26.26
2022-12-24T02:25:11.865Z,27.20
2022-12-24T02:26:11.893Z,27.35
2022-12-24T02:27:11.849Z,26.78
2022-12-24T02:28:11.826Z,26.05
2022-12-24T02:29:11.835Z,26.20
2022-12-24T02:30:11.863Z,26.14
2022-12-24T02:31:11.924Z,29.28
2022-12-24T02:32:11.796Z,26.31
2022-12-24T02:33:11.789Z,28.30
2022-12-24T02:34:11.774Z,27.04
2022-12-24T02:35:11.782Z,28.92
2022-12-24T02:36:11.747Z,28.64
2022-12-24T02:37:11.743Z,28.09
2022-12-24T02:38:11.740Z,29.03
2022-12-24T02:39:11.721Z,27.74
2022-12-24T02:40:16.219Z,29.03
2022-12-24T02:41:12.702Z,29.27
2022-12-24T02:42:11.700Z,29.05
2022-12-24T02:43:11.703Z,29.11
2022-12-24T02:44:11.679Z,28.72
2022-12-24T02:45:11.676Z,27.02
2022-12-24T02:46:11.795Z,27.27
2022-12-24T02:47:11.720Z,27.97
2022-12-24T02:48:11.642Z,25.15
2022-12-24T02:49:11.652Z,28.06
2022-12-24T02:50:11.615Z,29.52
2022-12-24T02:51:11.626Z,30.18
2022-12-24T02:52:11.639Z,31.87
2022-12-24T02:53:11.600Z,29.54
2022-12-24T02:54:11.585Z,29.29
2022-12-24T02:55:11.610Z,28.46
2022-12-24T02:56:11.588Z,25.59
2022-12-24T02:57:11.576Z,25.60
2022-12-24T02:58:11.589Z,32.17
2022-12-24T02:59:11.586Z,38.03
2022-12-24T03:00:11.562Z,39.29
2022-12-24T03:01:11.614Z,34.93
2022-12-24T03:02:11.636Z,35.71
2022-12-24T03:03:11.512Z,42.74
2022-12-24T03:04:11.519Z,49.87
2022-12-24T03:05:11.491Z,47.80
2022-12-24T03:06:11.499Z,47.04
2022-12-24T03:07:11.475Z,48.04
2022-12-24T03:08:11.470Z,51.37
2022-12-24T03:09:11.462Z,55.40
2022-12-24T03:10:11.478Z,58.77
2022-12-24T03:11:11.429Z,56.23
2022-12-24T03:12:11.435Z,55.97
2022-12-24T03:13:11.447Z,57.23
2022-12-24T03:14:11.420Z,54.54
2022-12-24T03:15:11.400Z,53.27
2022-12-24T03:16:11.410Z,50.64
2022-12-24T03:17:11.420Z,49.59
2022-12-24T03:18:11.377Z,47.18
2022-12-24T03:19:11.431Z,49.60
2022-12-24T03:20:11.370Z,47.42
2022-12-24T03:21:11.348Z,39.68
2022-12-24T03:22:11.367Z,43.01
2022-12-24T03:23:11.339Z,47.81
2022-12-24T03:24:11.321Z,43.80
2022-12-24T03:25:11.316Z,45.22
2022-12-24T03:26:11.291Z,44.46
2022-12-24T03:27:11.293Z,42.20
2022-12-24T03:28:11.309Z,41.42
2022-12-24T03:29:11.301Z,41.60
2022-12-24T03:30:11.263Z,44.03
2022-12-24T03:31:11.299Z,43.13
2022-12-24T03:32:11.247Z,35.01
2022-12-24T03:33:11.240Z,39.64
2022-12-24T03:34:11.258Z,39.51
2022-12-24T03:35:11.216Z,38.48
2022-12-24T03:36:11.204Z,35.90
2022-12-24T03:37:11.215Z,33.67
2022-12-24T03:38:11.242Z,30.72
2022-12-24T03:39:11.211Z,33.84
2022-12-24T03:40:11.173Z,34.71
2022-12-24T03:41:11.189Z,33.25
2022-12-24T03:42:11.154Z,32.70
2022-12-24T03:43:11.151Z,28.37
2022-12-24T03:44:11.147Z,31.00
2022-12-24T03:45:11.129Z,28.85
2022-12-24T03:46:11.177Z,27.97
2022-12-24T03:47:11.150Z,27.21
2022-12-24T03:48:11.097Z,27.43
2022-12-24T03:49:11.120Z,28.98
2022-12-24T03:50:11.114Z,28.90
2022-12-24T03:51:11.099Z,28.45
2022-12-24T03:52:11.071Z,28.80
2022-12-24T03:53:11.068Z,28.45
2022-12-24T03:54:11.076Z,28.05
2022-12-24T03:55:11.025Z,27.73
2022-12-24T03:56:11.058Z,28.79
2022-12-24T03:57:11.026Z,28.57
2022-12-24T03:58:11.007Z,32.08
2022-12-24T03:59:11.030Z,26.57
2022-12-24T04:00:11.006Z,28.75
2022-12-24T04:01:11.070Z,27.76
2022-12-24T04:02:11.169Z,26.84
2022-12-24T04:03:11.087Z,31.73
2022-12-24T04:04:10.986Z,34.42
2022-12-24T04:05:10.960Z,34.98
2022-12-24T04:06:10.994Z,36.45
2022-12-24T04:07:10.972Z,38.29
2022-12-24T04:08:10.929Z,40.32
2022-12-24T04:09:10.904Z,41.19
2022-12-24T04:10:10.919Z,39.77
2022-12-24T04:11:10.943Z,38.34
2022-12-24T04:12:10.889Z,41.26
2022-12-24T04:13:10.877Z,64.01
2022-12-24T04:14:10.877Z,73.45
2022-12-24T04:15:10.851Z,70.19
2022-12-24T04:16:10.914Z,69.64
2022-12-24T04:17:10.866Z,72.83
2022-12-24T04:18:10.845Z,74.96
2022-12-24T04:19:10.826Z,73.66
2022-12-24T04:20:10.834Z,69.90
2022-12-24T04:21:10.804Z,70.53
2022-12-24T04:22:10.803Z,69.19
2022-12-24T04:23:10.819Z,71.50
2022-12-24T04:24:10.801Z,69.46
2022-12-24T04:25:10.770Z,74.16
2022-12-24T04:26:10.798Z,74.32
2022-12-24T04:27:10.754Z,69.71
2022-12-24T04:28:10.755Z,74.81
2022-12-24T04:29:10.753Z,68.62
2022-12-24T04:30:10.736Z,70.10
2022-12-24T04:31:10.727Z,68.94
2022-12-24T04:32:10.814Z,71.25
2022-12-24T04:33:10.707Z,65.86
2022-12-24T04:34:10.727Z,69.20
2022-12-24T04:35:10.682Z,71.05
2022-12-24T04:36:10.672Z,69.31
2022-12-24T04:37:10.657Z,70.65
2022-12-24T04:38:10.674Z,72.34
2022-12-24T04:39:10.637Z,67.21
2022-12-24T04:40:10.646Z,70.76
2022-12-24T04:41:10.634Z,72.68
2022-12-24T04:42:10.625Z,71.48
2022-12-24T04:43:10.608Z,75.31
2022-12-24T04:44:10.621Z,70.64
2022-12-24T04:45:10.628Z,75.26
2022-12-24T04:46:10.646Z,74.58
2022-12-24T04:47:10.570Z,77.92
2022-12-24T04:48:10.560Z,77.24
2022-12-24T04:49:10.579Z,75.28
2022-12-24T04:50:10.547Z,73.20
2022-12-24T04:51:10.536Z,73.89
2022-12-24T04:52:10.532Z,74.49
2022-12-24T04:53:10.535Z,72.21
2022-12-24T04:54:10.533Z,73.94
2022-12-24T04:55:10.501Z,73.92
2022-12-24T04:56:10.501Z,84.49
2022-12-24T04:57:10.485Z,90.81
2022-12-24T04:58:10.471Z,93.13
2022-12-24T04:59:10.492Z,90.75
2022-12-24T05:00:10.493Z,91.58
2022-12-24T05:01:10.551Z,88.35
2022-12-24T05:02:10.633Z,89.83
2022-12-24T05:03:10.481Z,90.50
2022-12-24T05:04:10.434Z,86.22
2022-12-24T05:05:10.415Z,85.84
2022-12-24T05:06:10.406Z,86.58
2022-12-24T05:07:10.392Z,82.95
2022-12-24T05:08:10.399Z,83.90
2022-12-24T05:09:10.401Z,79.84
2022-12-24T05:10:10.373Z,82.00
2022-12-24T05:11:10.372Z,78.03
2022-12-24T05:12:10.357Z,77.88
2022-12-24T05:13:10.349Z,77.29
2022-12-24T05:14:10.363Z,75.70
2022-12-24T05:15:10.318Z,76.25
2022-12-24T05:16:10.350Z,72.88
2022-12-24T05:17:10.385Z,74.86
2022-12-24T05:18:10.311Z,71.99
2022-12-24T05:19:10.300Z,70.64
2022-12-24T05:20:10.297Z,71.91
2022-12-24T05:21:10.280Z,69.95
2022-12-24T05:22:10.261Z,68.96
2022-12-24T05:23:10.251Z,75.35
2022-12-24T05:24:10.267Z,76.92
2022-12-24T05:25:10.243Z,71.93
2022-12-24T05:26:10.228Z,67.75
2022-12-24T05:27:10.219Z,72.22
2022-12-24T05:28:10.208Z,69.06
2022-12-24T05:29:10.218Z,70.17
2022-12-24T05:30:10.200Z,72.69
2022-12-24T05:31:10.301Z,74.21
2022-12-24T05:32:10.167Z,73.75
2022-12-24T05:33:10.169Z,72.26
2022-12-24T05:34:10.156Z,74.41
2022-12-24T05:35:10.149Z,70.01
2022-12-24T05:36:10.161Z,67.66
2022-12-24T05:37:10.129Z,68.45
2022-12-24T05:38:10.155Z,67.78
2022-12-24T05:39:15.351Z,68.50
2022-12-24T05:40:11.109Z,68.69
2022-12-24T05:41:10.083Z,67.17
2022-12-24T05:42:10.096Z,68.81
2022-12-24T05:43:10.065Z,64.12
2022-12-24T05:44:10.088Z,66.01
2022-12-24T05:45:10.070Z,66.07
2022-12-24T05:46:10.074Z,63.70
2022-12-24T05:47:10.046Z,62.54
2022-12-24T05:48:10.021Z,64.32
2022-12-24T05:49:10.036Z,66.44
2022-12-24T05:50:10.011Z,66.04
2022-12-24T05:51:09.996Z,67.57
2022-12-24T05:52:09.985Z,64.22
2022-12-24T05:53:09.987Z,62.59
2022-12-24T05:54:09.996Z,62.73
2022-12-24T05:55:09.958Z,62.17
2022-12-24T05:56:09.975Z,64.90
2022-12-24T05:57:09.952Z,60.71
2022-12-24T05:58:09.942Z,65.13
2022-12-24T05:59:09.950Z,59.45
2022-12-24T06:00:09.939Z,63.40
2022-12-24T06:01:09.937Z,58.55
2022-12-24T06:02:09.938Z,60.65
2022-12-24T06:03:09.912Z,58.85
2022-12-24T06:04:09.930Z,55.59
2022-12-24T06:05:09.973Z,61.95
2022-12-24T06:06:09.873Z,56.31
2022-12-24T06:07:09.863Z,58.92
2022-12-24T06:08:09.881Z,57.14
2022-12-24T06:09:09.848Z,55.58
2022-12-24T06:10:09.825Z,56.64
2022-12-24T06:11:09.816Z,52.23
2022-12-24T06:12:09.808Z,58.41
2022-12-24T06:13:09.806Z,55.89
2022-12-24T06:14:09.824Z,52.38
2022-12-24T06:15:09.808Z,49.37
2022-12-24T06:16:09.892Z,48.85
2022-12-24T06:17:09.767Z,51.19
2022-12-24T06:18:09.775Z,49.26
2022-12-24T06:19:09.776Z,46.89
2022-12-24T06:20:09.734Z,49.24
2022-12-24T06:21:09.736Z,46.63
2022-12-24T06:22:09.740Z,49.26
2022-12-24T06:23:09.706Z,45.93
2022-12-24T06:24:09.717Z,44.36
2022-12-24T06:25:09.691Z,45.21
2022-12-24T06:26:09.680Z,43.85
2022-12-24T06:27:09.686Z,43.48
2022-12-24T06:28:09.672Z,46.09
2022-12-24T06:29:09.679Z,41.15
2022-12-24T06:30:09.662Z,46.37
2022-12-24T06:31:09.692Z,42.92
2022-12-24T06:32:09.622Z,42.36
2022-12-24T06:33:09.638Z,43.72
2022-12-24T06:34:09.633Z,44.10
2022-12-24T06:35:09.606Z,46.11
2022-12-24T06:36:16.686Z,43.07
2022-12-24T06:37:10.598Z,43.56
2022-12-24T06:38:09.579Z,46.39
2022-12-24T06:39:09.582Z,52.63
2022-12-24T06:40:09.611Z,60.38
2022-12-24T06:41:09.548Z,67.09
2022-12-24T06:42:09.627Z,69.24
2022-12-24T06:43:09.534Z,72.30
2022-12-24T06:44:09.551Z,68.68
2022-12-24T06:45:09.515Z,66.86
2022-12-24T06:46:09.599Z,68.74
2022-12-24T06:47:09.496Z,66.68
2022-12-24T06:48:09.507Z,66.17
2022-12-24T06:49:09.498Z,69.72
2022-12-24T06:50:09.468Z,64.91
2022-12-24T06:51:09.475Z,66.83
2022-12-24T06:52:09.477Z,64.87
2022-12-24T06:53:09.449Z,62.50
2022-12-24T06:54:09.435Z,62.69
2022-12-24T06:55:09.422Z,60.74
2022-12-24T06:56:09.464Z,60.08
2022-12-24T06:57:09.399Z,58.85
2022-12-24T06:58:09.394Z,57.19
2022-12-24T06:59:09.412Z,58.08
2022-12-24T07:00:09.409Z,59.44
2022-12-24T07:01:09.386Z,61.10
2022-12-24T07:02:09.580Z,62.17
2022-12-24T07:03:09.400Z,63.00
2022-12-24T07:04:12.076Z,59.02
2022-12-24T07:05:10.357Z,59.23
2022-12-24T07:06:09.363Z,58.72
2022-12-24T07:07:09.312Z,58.27
2022-12-24T07:08:09.317Z,60.29
2022-12-24T07:09:09.291Z,57.83
2022-12-24T07:10:09.305Z,59.17
2022-12-24T07:11:09.318Z,55.84
2022-12-24T07:12:09.263Z,55.00
2022-12-24T07:13:09.271Z,55.12
2022-12-24T07:14:09.270Z,56.91
2022-12-24T07:15:09.249Z,57.36
2022-12-24T07:16:09.368Z,55.47
2022-12-24T07:17:09.422Z,53.49
2022-12-24T07:18:09.238Z,57.06
2022-12-24T07:19:09.211Z,53.36
2022-12-24T07:20:09.203Z,47.68
2022-12-24T07:21:09.197Z,47.69
2022-12-24T07:22:15.202Z,43.56
2022-12-24T07:23:10.175Z,43.94
2022-12-24T07:24:09.366Z,45.34
2022-12-24T07:25:09.166Z,52.36
2022-12-24T07:26:09.169Z,58.51
2022-12-24T07:27:09.144Z,55.55
2022-12-24T07:28:09.147Z,52.25
2022-12-24T07:29:09.128Z,52.17
2022-12-24T07:30:09.112Z,58.27
2022-12-24T07:31:09.253Z,76.87
2022-12-24T07:32:09.104Z,145.88
2022-12-24T07:33:09.100Z,189.94
2022-12-24T07:34:09.078Z,159.98
2022-12-24T07:35:09.064Z,211.57
2022-12-24T07:36:09.050Z,238.39
2022-12-24T07:37:09.044Z,209.30
2022-12-24T07:38:09.065Z,237.99
2022-12-24T07:39:09.068Z,177.87
2022-12-24T07:40:09.025Z,171.37
2022-12-24T07:41:09.013Z,131.77
2022-12-24T07:42:09.014Z,137.08
2022-12-24T07:43:08.986Z,146.47
2022-12-24T07:44:09.011Z,112.86
2022-12-24T07:45:08.965Z,160.35
2022-12-24T07:46:09.012Z,136.99
2022-12-24T07:47:09.011Z,138.03
2022-12-24T07:48:08.945Z,131.18
2022-12-24T07:49:08.965Z,124.59
2022-12-24T07:50:08.930Z,130.51
2022-12-24T07:51:08.919Z,132.07
2022-12-24T07:52:08.906Z,139.62
2022-12-24T07:53:08.899Z,141.99
2022-12-24T07:54:08.915Z,129.43
2022-12-24T07:55:08.886Z,112.83
2022-12-24T07:56:12.644Z,145.07
2022-12-24T07:57:08.862Z,138.73
2022-12-24T07:58:08.882Z,139.99
2022-12-24T07:59:08.872Z,115.79
2022-12-24T08:00:08.839Z,110.65
2022-12-24T08:01:08.908Z,111.76
2022-12-24T08:02:12.612Z,108.69
2022-12-24T08:03:09.950Z,108.89
2022-12-24T08:04:08.900Z,109.27
2022-12-24T08:05:08.837Z,108.91
2022-12-24T08:06:08.787Z,108.16
2022-12-24T08:07:08.777Z,111.22
2022-12-24T08:08:08.774Z,119.62
2022-12-24T08:09:08.791Z,109.14
2022-12-24T08:10:08.747Z,104.67
2022-12-24T08:11:08.761Z,109.78
2022-12-24T08:12:08.724Z,105.21
2022-12-24T08:13:08.717Z,105.57
2022-12-24T08:14:08.732Z,103.35
2022-12-24T08:15:08.705Z,102.90
2022-12-24T08:16:08.722Z,104.56
2022-12-24T08:17:08.689Z,103.38
2022-12-24T08:18:08.690Z,101.22
2022-12-24T08:19:08.704Z,102.36
2022-12-24T08:20:08.660Z,99.65
2022-12-24T08:21:08.681Z,97.58
2022-12-24T08:22:08.642Z,102.84
2022-12-24T08:23:08.708Z,97.23
2022-12-24T08:24:08.618Z,102.78
2022-12-24T08:25:08.614Z,111.00
2022-12-24T08:26:08.615Z,113.04
2022-12-24T08:27:08.630Z,100.63
2022-12-24T08:28:08.585Z,106.65
2022-12-24T08:29:08.705Z,109.00
2022-12-24T08:30:08.581Z,158.05
2022-12-24T08:31:08.708Z,154.02
2022-12-24T08:32:08.693Z,151.19
2022-12-24T08:33:08.567Z,148.22
2022-12-24T08:34:08.521Z,157.88
2022-12-24T08:35:08.518Z,154.44
2022-12-24T08:36:08.529Z,146.22
2022-12-24T08:37:08.525Z,137.66
2022-12-24T08:38:08.521Z,139.82
2022-12-24T08:39:08.489Z,135.03
2022-12-24T08:40:08.513Z,134.33
2022-12-24T08:41:08.476Z,140.17
2022-12-24T08:42:08.578Z,135.22
2022-12-24T08:43:08.446Z,136.03
2022-12-24T08:44:08.447Z,132.42
2022-12-24T08:45:08.454Z,129.89
2022-12-24T08:46:08.457Z,130.67
2022-12-24T08:47:08.445Z,137.89
2022-12-24T08:48:08.409Z,138.85
2022-12-24T08:49:08.406Z,141.82
2022-12-24T08:50:08.445Z,133.55
2022-12-24T08:51:08.375Z,130.11
2022-12-24T08:52:08.363Z,133.54
2022-12-24T08:53:08.364Z,131.92
2022-12-24T08:54:08.354Z,127.98
2022-12-24T08:55:08.351Z,130.08
2022-12-24T08:56:08.361Z,128.93
2022-12-24T08:57:08.336Z,122.49
2022-12-24T08:58:08.320Z,118.24
2022-12-24T08:59:08.320Z,116.08
2022-12-24T09:00:08.319Z,115.66
2022-12-24T09:01:08.355Z,112.70
2022-12-24T09:02:08.513Z,107.38
2022-12-24T09:03:08.308Z,112.24
2022-12-24T09:04:08.292Z,107.98
2022-12-24T09:05:08.267Z,100.64
2022-12-24T09:06:08.243Z,88.81
2022-12-24T09:07:08.239Z,84.57
2022-12-24T09:08:08.228Z,85.28
2022-12-24T09:09:08.240Z,79.15
2022-12-24T09:10:08.211Z,75.89
2022-12-24T09:11:08.199Z,77.56
2022-12-24T09:12:08.207Z,73.62
2022-12-24T09:13:08.202Z,72.93
2022-12-24T09:14:08.174Z,73.62
2022-12-24T09:15:08.309Z,76.08
2022-12-24T09:16:08.207Z,74.83
2022-12-24T09:17:08.169Z,75.78
2022-12-24T09:18:08.146Z,63.07
2022-12-24T09:19:08.176Z,66.12
2022-12-24T09:20:08.162Z,66.98
2022-12-24T09:21:08.110Z,65.81
2022-12-24T09:22:08.109Z,69.70
2022-12-24T09:23:08.110Z,60.68
2022-12-24T09:24:08.084Z,60.18
2022-12-24T09:25:08.096Z,59.67
2022-12-24T09:26:08.060Z,56.70
2022-12-24T09:27:08.068Z,54.89
2022-12-24T09:28:08.049Z,53.39
2022-12-24T09:29:08.039Z,56.54
2022-12-24T09:30:08.041Z,53.68
2022-12-24T09:31:08.049Z,50.51
2022-12-24T09:32:08.081Z,53.18
2022-12-24T09:33:08.004Z,52.22
2022-12-24T09:34:07.999Z,52.40
2022-12-24T09:35:08.009Z,50.14
2022-12-24T09:36:07.979Z,48.13
2022-12-24T09:37:07.990Z,47.75
2022-12-24T09:38:07.984Z,47.75
2022-12-24T09:39:07.943Z,44.95
2022-12-24T09:40:07.936Z,44.80
2022-12-24T09:41:09.082Z,45.77
2022-12-24T09:42:07.917Z,46.14
2022-12-24T09:43:07.918Z,54.34
2022-12-24T09:44:07.904Z,48.64
2022-12-24T09:45:07.914Z,41.87
2022-12-24T09:46:07.995Z,47.79
2022-12-24T09:47:10.146Z,43.95
2022-12-24T09:48:07.935Z,49.67
2022-12-24T09:49:07.924Z,44.97
2022-12-24T09:50:07.934Z,51.30
2022-12-24T09:51:07.912Z,43.33
2022-12-24T09:52:07.937Z,49.35
2022-12-24T09:53:07.897Z,45.81
2022-12-24T09:54:07.883Z,45.28
2022-12-24T09:55:07.934Z,44.55
2022-12-24T09:56:08.024Z,42.54
2022-12-24T09:57:08.026Z,42.04
2022-12-24T09:58:08.074Z,45.21
2022-12-24T09:59:08.153Z,46.64
2022-12-24T10:00:08.166Z,42.11
2022-12-24T10:01:08.280Z,40.53
2022-12-24T10:02:08.446Z,41.78
2022-12-24T10:03:08.367Z,44.27
2022-12-24T10:04:08.376Z,38.74
2022-12-24T10:05:08.424Z,43.08
2022-12-24T10:06:08.497Z,40.75
2022-12-24T10:07:08.565Z,43.33
2022-12-24T10:08:08.584Z,40.73
2022-12-24T10:09:08.632Z,39.89
2022-12-24T10:10:08.674Z,40.37
2022-12-24T10:11:08.757Z,39.29
2022-12-24T10:12:08.808Z,45.69
2022-12-24T10:13:08.856Z,39.11
2022-12-24T10:14:08.870Z,46.14
2022-12-24T10:15:08.940Z,42.19
2022-12-24T10:16:08.976Z,43.12
2022-12-24T10:17:09.123Z,38.93
2022-12-24T10:18:09.079Z,42.88
2022-12-24T10:19:09.125Z,45.07
2022-12-24T10:20:09.182Z,32.35
2022-12-24T10:21:09.229Z,37.47
2022-12-24T10:22:09.291Z,41.24
2022-12-24T10:23:09.319Z,36.24
2022-12-24T10:24:09.372Z,39.10
2022-12-24T10:25:09.415Z,33.61
2022-12-24T10:26:09.506Z,38.76
2022-12-24T10:27:09.533Z,38.84
2022-12-24T10:28:09.574Z,35.29
2022-12-24T10:29:09.622Z,35.64
2022-12-24T10:30:15.053Z,37.08
2022-12-24T10:31:10.781Z,37.18
2022-12-24T10:32:09.649Z,35.72
2022-12-24T10:33:09.643Z,35.13
2022-12-24T10:34:09.629Z,25.89
2022-12-24T10:35:09.631Z,33.52
2022-12-24T10:36:12.336Z,31.07
2022-12-24T10:37:09.626Z,33.54
2022-12-24T10:38:09.586Z,27.68
2022-12-24T10:39:09.593Z,28.80
2022-12-24T10:40:09.616Z,25.00
2022-12-24T10:41:09.579Z,31.90
2022-12-24T10:42:09.560Z,37.00
2022-12-24T10:43:09.587Z,26.96
2022-12-24T10:44:09.536Z,34.22
2022-12-24T10:45:09.531Z,32.53
2022-12-24T10:46:09.607Z,28.82
2022-12-24T10:47:09.536Z,26.67
2022-12-24T10:48:09.523Z,25.24
2022-12-24T10:49:09.503Z,28.14
2022-12-24T10:50:09.494Z,29.15
2022-12-24T10:51:09.526Z,31.27
2022-12-24T10:52:09.472Z,32.87
2022-12-24T10:53:09.503Z,26.55
2022-12-24T10:54:09.452Z,25.53
2022-12-24T10:55:09.462Z,27.79
2022-12-24T10:56:09.433Z,28.83
2022-12-24T10:57:09.421Z,27.09
2022-12-24T10:58:09.454Z,26.24
2022-12-24T10:59:09.439Z,28.09
2022-12-24T11:00:09.404Z,26.26
2022-12-24T11:01:09.576Z,25.70
2022-12-24T11:02:09.476Z,28.13
2022-12-24T11:03:09.482Z,25.00
2022-12-24T11:04:09.397Z,27.45
2022-12-24T11:05:09.344Z,25.00
2022-12-24T11:06:09.343Z,26.58
2022-12-24T11:07:09.339Z,30.50
2022-12-24T11:08:09.358Z,26.80
2022-12-24T11:09:09.341Z,27.47
2022-12-24T11:10:09.298Z,27.72
2022-12-24T11:11:09.306Z,27.23
2022-12-24T11:12:09.879Z,27.84
2022-12-24T11:13:36.785Z,27.81
2022-12-24T11:14:10.295Z,28.00
2022-12-24T11:15:09.276Z,27.94
2022-12-24T11:16:09.390Z,25.34
2022-12-24T11:17:09.260Z,25.72
2022-12-24T11:18:09.248Z,25.81
2022-12-24T11:19:09.243Z,27.55
2022-12-24T11:20:09.215Z,28.80
2022-12-24T11:21:09.209Z,29.63
2022-12-24T11:22:09.206Z,27.61
2022-12-24T11:23:09.192Z,25.13
2022-12-24T11:24:09.356Z,26.49
2022-12-24T11:25:09.213Z,31.03
2022-12-24T11:26:09.160Z,27.45
2022-12-24T11:27:09.156Z,26.93
2022-12-24T11:28:09.161Z,26.79
2022-12-24T11:29:09.167Z,27.49
2022-12-24T11:30:11.883Z,25.85
2022-12-24T11:31:09.173Z,29.28
2022-12-24T11:32:09.103Z,28.02
2022-12-24T11:33:09.091Z,28.02
2022-12-24T11:34:09.081Z,26.77
2022-12-24T11:35:09.097Z,25.66
2022-12-24T11:36:09.105Z,30.36
2022-12-24T11:37:14.088Z,29.56
2022-12-24T11:38:10.075Z,29.84
2022-12-24T11:39:09.051Z,29.68
2022-12-24T11:40:09.061Z,27.25
2022-12-24T11:41:09.027Z,29.98
2022-12-24T11:42:09.020Z,27.79
2022-12-24T11:43:14.718Z,27.07
2022-12-24T11:44:10.004Z,27.28
2022-12-24T11:45:09.019Z,27.38
2022-12-24T11:46:09.002Z,27.32
2022-12-24T11:47:08.969Z,28.30
2022-12-24T11:48:08.975Z,27.75
2022-12-24T11:49:08.982Z,26.56
2022-12-24T11:50:18.268Z,27.09
2022-12-24T11:51:09.931Z,27.18
2022-12-24T11:52:08.934Z,24.52
2022-12-24T11:53:08.944Z,25.07
2022-12-24T11:54:08.926Z,27.22
2022-12-24T11:55:15.489Z,26.95
2022-12-24T11:56:09.888Z,27.27
2022-12-24T11:57:08.928Z,27.26
2022-12-24T11:58:08.881Z,25.43
2022-12-24T11:59:08.883Z,26.43
2022-12-24T12:00:08.854Z,24.56
2022-12-24T12:01:15.204Z,27.92
2022-12-24T12:02:09.837Z,27.96
2022-12-24T12:03:08.898Z,28.08
2022-12-24T12:04:08.899Z,28.01
2022-12-24T12:05:08.822Z,28.25
2022-12-24T12:06:08.858Z,27.74
2022-12-24T12:07:14.516Z,25.00
2022-12-24T12:08:09.785Z,26.02
2022-12-24T12:09:08.775Z,30.70
2022-12-24T12:10:08.814Z,52.67
2022-12-24T12:11:08.751Z,70.80
2022-12-24T12:12:08.838Z,95.93
2022-12-24T12:13:14.913Z,105.02
2022-12-24T12:14:09.741Z,98.15
2022-12-24T12:15:08.721Z,105.38
2022-12-24T12:16:08.732Z,105.27
2022-12-24T12:17:08.723Z,105.26
2022-12-24T12:18:08.724Z,114.71
2022-12-24T12:19:14.781Z,115.45
2022-12-24T12:20:09.696Z,114.23
2022-12-24T12:21:08.663Z,115.71
2022-12-24T12:22:08.670Z,114.75
2022-12-24T12:23:08.652Z,113.64
2022-12-24T12:24:08.646Z,109.25
2022-12-24T12:25:08.648Z,104.21
2022-12-24T12:26:08.630Z,99.65
2022-12-24T12:27:08.605Z,93.23
2022-12-24T12:28:08.629Z,92.76
2022-12-24T12:29:08.604Z,88.53
2022-12-24T12:30:08.649Z,89.18
2022-12-24T12:31:15.529Z,88.93
2022-12-24T12:32:09.616Z,88.94
2022-12-24T12:33:08.602Z,84.03
2022-12-24T12:34:08.560Z,84.41
2022-12-24T12:35:08.668Z,79.50
2022-12-24T12:36:08.608Z,79.28
2022-12-24T12:37:14.415Z,79.48
2022-12-24T12:38:09.543Z,79.63
2022-12-24T12:39:08.503Z,77.02
2022-12-24T12:40:08.485Z,77.66
2022-12-24T12:41:08.507Z,72.68
2022-12-24T12:42:08.489Z,72.10
2022-12-24T12:43:13.896Z,69.78
2022-12-24T12:44:09.478Z,69.90
2022-12-24T12:45:08.479Z,69.92
2022-12-24T12:46:08.440Z,66.11
2022-12-24T12:47:08.510Z,62.94
2022-12-24T12:48:08.445Z,62.55
2022-12-24T12:49:08.418Z,60.45